sensor_id;sensor_type;location;lat;lon;timestamp;P1;durP1;ratioP1;P2;durP2;ratioP2
19907;SDS011;10116;53.112;7.356;2024-02-26T00:02:00;2.30;;;2.20;;
19907;SDS011;10116;53.112;7.356;2024-02-26T00:04:25;2.40;;;2.30;;
19907;SDS011;10116;53.112;7.356;2024-02-26T00:06:51;2.43;;;2.33;;
19907;SDS011;10116;53.112;7.356;2024-02-26T00:09:19;2.27;;;2.17;;
19907;SDS011;10116;53.112;7.356;2024-02-26T00:11:44;2.83;;;2.63;;
19907;SDS011;10116;53.112;7.356;2024-02-26T00:14:10;2.20;;;2.10;;
19907;SDS011;10116;53.112;7.356;2024-02-26T00:16:35;1.93;;;1.83;;
19907;SDS011;10116;53.112;7.356;2024-02-26T00:19:01;2.50;;;2.40;;
19907;SDS011;10116;53.112;7.356;2024-02-26T00:21:27;1.83;;;1.77;;
19907;SDS011;10116;53.112;7.356;2024-02-26T00:23:53;2.33;;;2.23;;
19907;SDS011;10116;53.112;7.356;2024-02-26T00:26:19;2.27;;;2.17;;
19907;SDS011;10116;53.112;7.356;2024-02-26T00:28:44;2.50;;;2.40;;
19907;SDS011;10116;53.112;7.356;2024-02-26T00:31:10;2.50;;;2.40;;
19907;SDS011;10116;53.112;7.356;2024-02-26T00:33:36;2.63;;;2.53;;
19907;SDS011;10116;53.112;7.356;2024-02-26T00:36:02;2.03;;;2.03;;
19907;SDS011;10116;53.112;7.356;2024-02-26T00:38:28;2.40;;;2.30;;
19907;SDS011;10116;53.112;7.356;2024-02-26T00:40:53;2.47;;;2.37;;
19907;SDS011;10116;53.112;7.356;2024-02-26T00:43:19;2.20;;;2.10;;
19907;SDS011;10116;53.112;7.356;2024-02-26T00:45:45;2.17;;;2.17;;
19907;SDS011;10116;53.112;7.356;2024-02-26T00:48:12;2.73;;;2.53;;
19907;SDS011;10116;53.112;7.356;2024-02-26T00:50:38;2.10;;;2.10;;
19907;SDS011;10116;53.112;7.356;2024-02-26T00:53:05;2.30;;;2.20;;
19907;SDS011;10116;53.112;7.356;2024-02-26T00:55:30;2.47;;;2.37;;
19907;SDS011;10116;53.112;7.356;2024-02-26T00:57:56;2.40;;;2.30;;
19907;SDS011;10116;53.112;7.356;2024-02-26T01:00:22;2.53;;;2.43;;
19907;SDS011;10116;53.112;7.356;2024-02-26T01:02:47;2.67;;;2.57;;
19907;SDS011;10116;53.112;7.356;2024-02-26T01:05:14;2.60;;;2.50;;
19907;SDS011;10116;53.112;7.356;2024-02-26T01:07:41;2.50;;;2.40;;
19907;SDS011;10116;53.112;7.356;2024-02-26T01:10:07;2.77;;;2.50;;
19907;SDS011;10116;53.112;7.356;2024-02-26T01:12:33;2.60;;;2.50;;
19907;SDS011;10116;53.112;7.356;2024-02-26T01:14:59;2.50;;;2.40;;
19907;SDS011;10116;53.112;7.356;2024-02-26T01:17:25;2.30;;;2.20;;
19907;SDS011;10116;53.112;7.356;2024-02-26T01:19:51;2.50;;;2.40;;
19907;SDS011;10116;53.112;7.356;2024-02-26T01:22:18;2.60;;;2.40;;
19907;SDS011;10116;53.112;7.356;2024-02-26T01:24:44;2.30;;;2.20;;
19907;SDS011;10116;53.112;7.356;2024-02-26T01:27:09;2.57;;;2.47;;
19907;SDS011;10116;53.112;7.356;2024-02-26T01:29:35;2.40;;;2.30;;
19907;SDS011;10116;53.112;7.356;2024-02-26T01:32:01;2.20;;;2.17;;
19907;SDS011;10116;53.112;7.356;2024-02-26T01:34:26;2.83;;;2.73;;
19907;SDS011;10116;53.112;7.356;2024-02-26T01:36:52;2.70;;;2.60;;
19907;SDS011;10116;53.112;7.356;2024-02-26T01:39:18;2.50;;;2.40;;
19907;SDS011;10116;53.112;7.356;2024-02-26T01:41:43;2.73;;;2.63;;
19907;SDS011;10116;53.112;7.356;2024-02-26T01:44:11;2.87;;;2.77;;
19907;SDS011;10116;53.112;7.356;2024-02-26T01:46:38;2.70;;;2.60;;
19907;SDS011;10116;53.112;7.356;2024-02-26T01:49:04;2.53;;;2.43;;
19907;SDS011;10116;53.112;7.356;2024-02-26T01:51:30;3.03;;;2.87;;
19907;SDS011;10116;53.112;7.356;2024-02-26T01:53:58;2.63;;;2.53;;
19907;SDS011;10116;53.112;7.356;2024-02-26T01:56:25;2.60;;;2.50;;
19907;SDS011;10116;53.112;7.356;2024-02-26T01:58:55;3.00;;;2.80;;
19907;SDS011;10116;53.112;7.356;2024-02-26T02:01:22;2.23;;;2.13;;
19907;SDS011;10116;53.112;7.356;2024-02-26T02:03:53;2.77;;;2.67;;
19907;SDS011;10116;53.112;7.356;2024-02-26T02:06:21;2.50;;;2.40;;
19907;SDS011;10116;53.112;7.356;2024-02-26T02:08:46;2.53;;;2.43;;
19907;SDS011;10116;53.112;7.356;2024-02-26T02:11:12;2.67;;;2.57;;
19907;SDS011;10116;53.112;7.356;2024-02-26T02:13:39;2.80;;;2.60;;
19907;SDS011;10116;53.112;7.356;2024-02-26T02:16:06;2.40;;;2.30;;
19907;SDS011;10116;53.112;7.356;2024-02-26T02:18:31;2.40;;;2.30;;
19907;SDS011;10116;53.112;7.356;2024-02-26T02:20:59;2.27;;;2.27;;
19907;SDS011;10116;53.112;7.356;2024-02-26T02:23:25;2.10;;;2.00;;
19907;SDS011;10116;53.112;7.356;2024-02-26T02:25:51;1.87;;;1.87;;
19907;SDS011;10116;53.112;7.356;2024-02-26T02:28:17;2.47;;;2.37;;
19907;SDS011;10116;53.112;7.356;2024-02-26T02:30:44;2.03;;;1.93;;
19907;SDS011;10116;53.112;7.356;2024-02-26T02:33:10;2.30;;;2.20;;
19907;SDS011;10116;53.112;7.356;2024-02-26T02:35:37;2.20;;;2.20;;
19907;SDS011;10116;53.112;7.356;2024-02-26T02:38:02;2.10;;;2.10;;
19907;SDS011;10116;53.112;7.356;2024-02-26T02:40:28;1.90;;;1.80;;
19907;SDS011;10116;53.112;7.356;2024-02-26T02:42:54;2.70;;;2.60;;
19907;SDS011;10116;53.112;7.356;2024-02-26T02:45:20;2.43;;;2.33;;
19907;SDS011;10116;53.112;7.356;2024-02-26T02:47:45;2.33;;;2.33;;
19907;SDS011;10116;53.112;7.356;2024-02-26T02:50:11;2.47;;;2.27;;
19907;SDS011;10116;53.112;7.356;2024-02-26T02:52:37;3.20;;;2.90;;
19907;SDS011;10116;53.112;7.356;2024-02-26T02:55:02;2.30;;;2.20;;
19907;SDS011;10116;53.112;7.356;2024-02-26T02:57:28;2.10;;;2.10;;
19907;SDS011;10116;53.112;7.356;2024-02-26T02:59:55;1.93;;;1.80;;
19907;SDS011;10116;53.112;7.356;2024-02-26T03:02:21;1.83;;;1.83;;
19907;SDS011;10116;53.112;7.356;2024-02-26T03:04:47;2.00;;;1.90;;
19907;SDS011;10116;53.112;7.356;2024-02-26T03:07:13;1.60;;;1.60;;
19907;SDS011;10116;53.112;7.356;2024-02-26T03:09:38;1.83;;;1.80;;
19907;SDS011;10116;53.112;7.356;2024-02-26T03:12:04;2.00;;;1.90;;
19907;SDS011;10116;53.112;7.356;2024-02-26T03:14:30;1.80;;;1.70;;
19907;SDS011;10116;53.112;7.356;2024-02-26T03:16:55;1.73;;;1.73;;
19907;SDS011;10116;53.112;7.356;2024-02-26T03:19:21;1.73;;;1.73;;
19907;SDS011;10116;53.112;7.356;2024-02-26T03:21:47;1.90;;;1.90;;
19907;SDS011;10116;53.112;7.356;2024-02-26T03:24:12;1.80;;;1.80;;
19907;SDS011;10116;53.112;7.356;2024-02-26T03:26:39;1.40;;;1.40;;
19907;SDS011;10116;53.112;7.356;2024-02-26T03:29:05;1.47;;;1.37;;
19907;SDS011;10116;53.112;7.356;2024-02-26T03:31:31;1.60;;;1.60;;
19907;SDS011;10116;53.112;7.356;2024-02-26T03:33:56;2.13;;;2.03;;
19907;SDS011;10116;53.112;7.356;2024-02-26T03:36:22;1.80;;;1.70;;
19907;SDS011;10116;53.112;7.356;2024-02-26T03:38:48;1.60;;;1.60;;
19907;SDS011;10116;53.112;7.356;2024-02-26T03:41:14;1.70;;;1.70;;
19907;SDS011;10116;53.112;7.356;2024-02-26T03:43:40;1.60;;;1.60;;
19907;SDS011;10116;53.112;7.356;2024-02-26T03:46:09;1.50;;;1.40;;
19907;SDS011;10116;53.112;7.356;2024-02-26T03:48:36;1.50;;;1.50;;
19907;SDS011;10116;53.112;7.356;2024-02-26T03:51:02;1.30;;;1.30;;
19907;SDS011;10116;53.112;7.356;2024-02-26T03:53:28;1.40;;;1.40;;
19907;SDS011;10116;53.112;7.356;2024-02-26T03:55:53;1.60;;;1.60;;
19907;SDS011;10116;53.112;7.356;2024-02-26T03:58:20;1.60;;;1.60;;
19907;SDS011;10116;53.112;7.356;2024-02-26T04:00:46;1.73;;;1.60;;
19907;SDS011;10116;53.112;7.356;2024-02-26T04:03:15;1.63;;;1.53;;
19907;SDS011;10116;53.112;7.356;2024-02-26T04:05:41;1.50;;;1.40;;
19907;SDS011;10116;53.112;7.356;2024-02-26T04:08:06;1.50;;;1.40;;
19907;SDS011;10116;53.112;7.356;2024-02-26T04:10:35;1.43;;;1.30;;
19907;SDS011;10116;53.112;7.356;2024-02-26T04:13:03;1.00;;;1.00;;
19907;SDS011;10116;53.112;7.356;2024-02-26T04:15:29;1.00;;;1.00;;
19907;SDS011;10116;53.112;7.356;2024-02-26T04:17:55;1.20;;;1.20;;
19907;SDS011;10116;53.112;7.356;2024-02-26T04:20:21;0.93;;;0.93;;
19907;SDS011;10116;53.112;7.356;2024-02-26T04:22:47;0.80;;;0.80;;
19907;SDS011;10116;53.112;7.356;2024-02-26T04:25:12;0.80;;;0.80;;
19907;SDS011;10116;53.112;7.356;2024-02-26T04:27:38;0.90;;;0.90;;
19907;SDS011;10116;53.112;7.356;2024-02-26T04:30:05;0.80;;;0.80;;
19907;SDS011;10116;53.112;7.356;2024-02-26T04:32:31;0.80;;;0.80;;
19907;SDS011;10116;53.112;7.356;2024-02-26T04:34:57;0.80;;;0.80;;
19907;SDS011;10116;53.112;7.356;2024-02-26T04:37:22;0.80;;;0.80;;
19907;SDS011;10116;53.112;7.356;2024-02-26T04:39:48;0.80;;;0.80;;
19907;SDS011;10116;53.112;7.356;2024-02-26T04:42:14;0.73;;;0.73;;
19907;SDS011;10116;53.112;7.356;2024-02-26T04:44:39;0.70;;;0.70;;
19907;SDS011;10116;53.112;7.356;2024-02-26T04:47:05;0.73;;;0.73;;
19907;SDS011;10116;53.112;7.356;2024-02-26T04:49:32;0.70;;;0.70;;
19907;SDS011;10116;53.112;7.356;2024-02-26T04:51:59;0.70;;;0.70;;
19907;SDS011;10116;53.112;7.356;2024-02-26T04:54:24;0.50;;;0.50;;
19907;SDS011;10116;53.112;7.356;2024-02-26T04:56:50;0.63;;;0.60;;
19907;SDS011;10116;53.112;7.356;2024-02-26T04:59:15;0.90;;;0.60;;
19907;SDS011;10116;53.112;7.356;2024-02-26T05:01:41;0.83;;;0.83;;
19907;SDS011;10116;53.112;7.356;2024-02-26T05:04:07;0.80;;;0.80;;
19907;SDS011;10116;53.112;7.356;2024-02-26T05:06:32;0.60;;;0.60;;
19907;SDS011;10116;53.112;7.356;2024-02-26T05:08:58;0.50;;;0.50;;
19907;SDS011;10116;53.112;7.356;2024-02-26T05:11:23;0.77;;;0.77;;
19907;SDS011;10116;53.112;7.356;2024-02-26T05:13:49;0.60;;;0.60;;
19907;SDS011;10116;53.112;7.356;2024-02-26T05:16:15;0.50;;;0.50;;
19907;SDS011;10116;53.112;7.356;2024-02-26T05:18:40;0.93;;;0.70;;
19907;SDS011;10116;53.112;7.356;2024-02-26T05:21:06;0.70;;;0.70;;
19907;SDS011;10116;53.112;7.356;2024-02-26T05:23:31;1.90;;;0.60;;
19907;SDS011;10116;53.112;7.356;2024-02-26T05:25:57;0.60;;;0.60;;
19907;SDS011;10116;53.112;7.356;2024-02-26T05:28:23;0.60;;;0.50;;
19907;SDS011;10116;53.112;7.356;2024-02-26T05:30:48;0.60;;;0.57;;
19907;SDS011;10116;53.112;7.356;2024-02-26T05:33:14;0.70;;;0.70;;
19907;SDS011;10116;53.112;7.356;2024-02-26T05:35:39;0.83;;;0.50;;
19907;SDS011;10116;53.112;7.356;2024-02-26T05:38:05;0.60;;;0.60;;
19907;SDS011;10116;53.112;7.356;2024-02-26T05:40:31;0.50;;;0.50;;
19907;SDS011;10116;53.112;7.356;2024-02-26T05:42:56;0.50;;;0.50;;
19907;SDS011;10116;53.112;7.356;2024-02-26T05:45:22;1.17;;;0.63;;
19907;SDS011;10116;53.112;7.356;2024-02-26T05:47:48;0.50;;;0.50;;
19907;SDS011;10116;53.112;7.356;2024-02-26T05:50:16;0.43;;;0.43;;
19907;SDS011;10116;53.112;7.356;2024-02-26T05:52:42;0.60;;;0.50;;
19907;SDS011;10116;53.112;7.356;2024-02-26T05:55:08;0.40;;;0.40;;
19907;SDS011;10116;53.112;7.356;2024-02-26T05:57:34;0.50;;;0.50;;
19907;SDS011;10116;53.112;7.356;2024-02-26T06:00:01;1.03;;;0.70;;
19907;SDS011;10116;53.112;7.356;2024-02-26T06:02:30;0.90;;;0.70;;
19907;SDS011;10116;53.112;7.356;2024-02-26T06:04:56;0.50;;;0.50;;
19907;SDS011;10116;53.112;7.356;2024-02-26T06:07:22;0.57;;;0.57;;
19907;SDS011;10116;53.112;7.356;2024-02-26T06:09:48;0.77;;;0.67;;
19907;SDS011;10116;53.112;7.356;2024-02-26T06:12:14;0.60;;;0.60;;
19907;SDS011;10116;53.112;7.356;2024-02-26T06:14:40;0.50;;;0.40;;
19907;SDS011;10116;53.112;7.356;2024-02-26T06:17:07;0.70;;;0.70;;
19907;SDS011;10116;53.112;7.356;2024-02-26T06:19:32;0.70;;;0.70;;
19907;SDS011;10116;53.112;7.356;2024-02-26T06:21:58;1.00;;;0.87;;
19907;SDS011;10116;53.112;7.356;2024-02-26T06:24:23;0.60;;;0.60;;
19907;SDS011;10116;53.112;7.356;2024-02-26T06:26:49;8.40;;;1.60;;
19907;SDS011;10116;53.112;7.356;2024-02-26T06:29:15;12.03;;;1.80;;
19907;SDS011;10116;53.112;7.356;2024-02-26T06:31:40;7.13;;;1.60;;
19907;SDS011;10116;53.112;7.356;2024-02-26T06:34:06;6.10;;;1.40;;
19907;SDS011;10116;53.112;7.356;2024-02-26T06:36:31;6.13;;;1.90;;
19907;SDS011;10116;53.112;7.356;2024-02-26T06:38:59;10.47;;;1.63;;
19907;SDS011;10116;53.112;7.356;2024-02-26T06:41:25;5.87;;;1.33;;
19907;SDS011;10116;53.112;7.356;2024-02-26T06:43:53;7.30;;;1.50;;
19907;SDS011;10116;53.112;7.356;2024-02-26T06:46:19;6.20;;;1.40;;
19907;SDS011;10116;53.112;7.356;2024-02-26T06:48:45;7.30;;;1.20;;
19907;SDS011;10116;53.112;7.356;2024-02-26T06:51:12;5.03;;;1.40;;
19907;SDS011;10116;53.112;7.356;2024-02-26T06:53:38;4.57;;;1.17;;
19907;SDS011;10116;53.112;7.356;2024-02-26T06:56:04;6.17;;;1.47;;
19907;SDS011;10116;53.112;7.356;2024-02-26T06:58:29;10.30;;;1.30;;
19907;SDS011;10116;53.112;7.356;2024-02-26T07:00:55;2.33;;;1.17;;
19907;SDS011;10116;53.112;7.356;2024-02-26T07:03:21;3.37;;;1.10;;
19907;SDS011;10116;53.112;7.356;2024-02-26T07:05:47;8.83;;;1.40;;
19907;SDS011;10116;53.112;7.356;2024-02-26T07:08:13;5.80;;;1.40;;
19907;SDS011;10116;53.112;7.356;2024-02-26T07:10:39;3.67;;;1.00;;
19907;SDS011;10116;53.112;7.356;2024-02-26T07:13:04;4.07;;;1.30;;
19907;SDS011;10116;53.112;7.356;2024-02-26T07:15:30;5.93;;;1.90;;
19907;SDS011;10116;53.112;7.356;2024-02-26T07:17:55;2.20;;;1.00;;
19907;SDS011;10116;53.112;7.356;2024-02-26T07:20:21;3.93;;;1.30;;
19907;SDS011;10116;53.112;7.356;2024-02-26T07:22:47;3.43;;;1.00;;
19907;SDS011;10116;53.112;7.356;2024-02-26T07:25:12;0.93;;;0.93;;
19907;SDS011;10116;53.112;7.356;2024-02-26T07:27:39;3.27;;;1.37;;
19907;SDS011;10116;53.112;7.356;2024-02-26T07:30:05;1.43;;;0.97;;
19907;SDS011;10116;53.112;7.356;2024-02-26T07:32:33;4.17;;;1.40;;
19907;SDS011;10116;53.112;7.356;2024-02-26T07:34:59;4.00;;;0.93;;
19907;SDS011;10116;53.112;7.356;2024-02-26T07:37:24;2.30;;;1.17;;
19907;SDS011;10116;53.112;7.356;2024-02-26T07:39:50;1.67;;;0.73;;
19907;SDS011;10116;53.112;7.356;2024-02-26T07:42:15;3.90;;;1.00;;
19907;SDS011;10116;53.112;7.356;2024-02-26T07:44:41;1.43;;;0.80;;
19907;SDS011;10116;53.112;7.356;2024-02-26T07:47:08;1.70;;;0.93;;
19907;SDS011;10116;53.112;7.356;2024-02-26T07:49:34;0.67;;;0.57;;
19907;SDS011;10116;53.112;7.356;2024-02-26T07:52:00;0.77;;;0.77;;
19907;SDS011;10116;53.112;7.356;2024-02-26T07:54:25;1.23;;;1.00;;
19907;SDS011;10116;53.112;7.356;2024-02-26T07:56:51;1.27;;;0.90;;
19907;SDS011;10116;53.112;7.356;2024-02-26T07:59:17;1.10;;;1.00;;
19907;SDS011;10116;53.112;7.356;2024-02-26T08:01:43;1.10;;;1.00;;
19907;SDS011;10116;53.112;7.356;2024-02-26T08:04:09;2.00;;;1.07;;
19907;SDS011;10116;53.112;7.356;2024-02-26T08:06:34;1.00;;;0.90;;
19907;SDS011;10116;53.112;7.356;2024-02-26T08:09:00;0.77;;;0.77;;
19907;SDS011;10116;53.112;7.356;2024-02-26T08:11:26;1.00;;;0.80;;
19907;SDS011;10116;53.112;7.356;2024-02-26T08:13:53;0.80;;;0.80;;
19907;SDS011;10116;53.112;7.356;2024-02-26T08:16:18;0.67;;;0.63;;
19907;SDS011;10116;53.112;7.356;2024-02-26T08:18:44;1.27;;;0.77;;
19907;SDS011;10116;53.112;7.356;2024-02-26T08:21:09;0.70;;;0.70;;
19907;SDS011;10116;53.112;7.356;2024-02-26T08:23:35;2.63;;;0.93;;
19907;SDS011;10116;53.112;7.356;2024-02-26T08:26:01;0.60;;;0.60;;
19907;SDS011;10116;53.112;7.356;2024-02-26T08:28:28;2.20;;;0.77;;
19907;SDS011;10116;53.112;7.356;2024-02-26T08:30:54;0.53;;;0.53;;
19907;SDS011;10116;53.112;7.356;2024-02-26T08:33:19;0.83;;;0.70;;
19907;SDS011;10116;53.112;7.356;2024-02-26T08:35:45;0.57;;;0.57;;
19907;SDS011;10116;53.112;7.356;2024-02-26T08:38:11;0.60;;;0.60;;
19907;SDS011;10116;53.112;7.356;2024-02-26T08:40:36;0.70;;;0.70;;
19907;SDS011;10116;53.112;7.356;2024-02-26T08:43:02;0.67;;;0.67;;
19907;SDS011;10116;53.112;7.356;2024-02-26T08:45:28;0.50;;;0.40;;
19907;SDS011;10116;53.112;7.356;2024-02-26T08:47:53;1.27;;;0.87;;
19907;SDS011;10116;53.112;7.356;2024-02-26T08:50:19;0.50;;;0.50;;
19907;SDS011;10116;53.112;7.356;2024-02-26T08:52:44;0.50;;;0.50;;
19907;SDS011;10116;53.112;7.356;2024-02-26T08:55:13;0.57;;;0.50;;
19907;SDS011;10116;53.112;7.356;2024-02-26T08:57:39;0.67;;;0.57;;
19907;SDS011;10116;53.112;7.356;2024-02-26T09:00:05;0.60;;;0.60;;
19907;SDS011;10116;53.112;7.356;2024-02-26T09:02:31;1.07;;;0.60;;
19907;SDS011;10116;53.112;7.356;2024-02-26T09:04:57;0.40;;;0.40;;
19907;SDS011;10116;53.112;7.356;2024-02-26T09:07:22;0.53;;;0.53;;
19907;SDS011;10116;53.112;7.356;2024-02-26T09:09:48;0.60;;;0.60;;
19907;SDS011;10116;53.112;7.356;2024-02-26T09:12:14;0.60;;;0.50;;
19907;SDS011;10116;53.112;7.356;2024-02-26T09:14:39;0.47;;;0.47;;
19907;SDS011;10116;53.112;7.356;2024-02-26T09:17:05;0.50;;;0.50;;
19907;SDS011;10116;53.112;7.356;2024-02-26T09:19:32;0.60;;;0.50;;
19907;SDS011;10116;53.112;7.356;2024-02-26T09:21:58;0.63;;;0.63;;
19907;SDS011;10116;53.112;7.356;2024-02-26T09:24:24;0.60;;;0.60;;
19907;SDS011;10116;53.112;7.356;2024-02-26T09:26:50;0.60;;;0.60;;
19907;SDS011;10116;53.112;7.356;2024-02-26T09:29:17;0.63;;;0.63;;
19907;SDS011;10116;53.112;7.356;2024-02-26T09:31:42;0.60;;;0.60;;
19907;SDS011;10116;53.112;7.356;2024-02-26T09:34:12;1.17;;;0.60;;
19907;SDS011;10116;53.112;7.356;2024-02-26T09:36:38;0.50;;;0.50;;
19907;SDS011;10116;53.112;7.356;2024-02-26T09:39:03;0.70;;;0.70;;
19907;SDS011;10116;53.112;7.356;2024-02-26T09:41:30;0.50;;;0.50;;
19907;SDS011;10116;53.112;7.356;2024-02-26T09:43:57;0.57;;;0.57;;
19907;SDS011;10116;53.112;7.356;2024-02-26T09:46:27;0.80;;;0.60;;
19907;SDS011;10116;53.112;7.356;2024-02-26T09:48:53;0.50;;;0.50;;
19907;SDS011;10116;53.112;7.356;2024-02-26T09:51:20;0.70;;;0.50;;
19907;SDS011;10116;53.112;7.356;2024-02-26T09:53:51;0.80;;;0.70;;
19907;SDS011;10116;53.112;7.356;2024-02-26T09:56:17;0.67;;;0.67;;
19907;SDS011;10116;53.112;7.356;2024-02-26T09:58:43;0.57;;;0.57;;
19907;SDS011;10116;53.112;7.356;2024-02-26T10:01:13;0.70;;;0.70;;
19907;SDS011;10116;53.112;7.356;2024-02-26T10:03:42;0.70;;;0.60;;
19907;SDS011;10116;53.112;7.356;2024-02-26T10:06:12;0.80;;;0.60;;
19907;SDS011;10116;53.112;7.356;2024-02-26T10:08:39;0.70;;;0.60;;
19907;SDS011;10116;53.112;7.356;2024-02-26T10:11:05;0.60;;;0.60;;
19907;SDS011;10116;53.112;7.356;2024-02-26T10:13:33;0.70;;;0.70;;
19907;SDS011;10116;53.112;7.356;2024-02-26T10:16:00;0.70;;;0.70;;
19907;SDS011;10116;53.112;7.356;2024-02-26T10:18:33;1.93;;;0.80;;
19907;SDS011;10116;53.112;7.356;2024-02-26T10:21:17;0.70;;;0.70;;
19907;SDS011;10116;53.112;7.356;2024-02-26T10:23:44;0.63;;;0.63;;
19907;SDS011;10116;53.112;7.356;2024-02-26T10:26:13;0.80;;;0.80;;
19907;SDS011;10116;53.112;7.356;2024-02-26T10:28:39;0.60;;;0.60;;
19907;SDS011;10116;53.112;7.356;2024-02-26T10:31:06;1.03;;;0.77;;
19907;SDS011;10116;53.112;7.356;2024-02-26T10:33:33;1.10;;;1.10;;
19907;SDS011;10116;53.112;7.356;2024-02-26T10:36:03;0.97;;;0.97;;
19907;SDS011;10116;53.112;7.356;2024-02-26T10:38:32;1.10;;;0.90;;
19907;SDS011;10116;53.112;7.356;2024-02-26T10:40:59;0.90;;;0.90;;
19907;SDS011;10116;53.112;7.356;2024-02-26T10:43:27;0.90;;;0.90;;
19907;SDS011;10116;53.112;7.356;2024-02-26T10:45:54;0.70;;;0.70;;
19907;SDS011;10116;53.112;7.356;2024-02-26T10:48:20;0.90;;;0.90;;
19907;SDS011;10116;53.112;7.356;2024-02-26T10:50:46;0.80;;;0.80;;
19907;SDS011;10116;53.112;7.356;2024-02-26T10:53:15;0.80;;;0.80;;
19907;SDS011;10116;53.112;7.356;2024-02-26T10:55:49;0.90;;;0.90;;
19907;SDS011;10116;53.112;7.356;2024-02-26T10:58:21;2.10;;;1.00;;
19907;SDS011;10116;53.112;7.356;2024-02-26T11:00:48;1.03;;;0.90;;
19907;SDS011;10116;53.112;7.356;2024-02-26T11:03:15;1.10;;;1.10;;
19907;SDS011;10116;53.112;7.356;2024-02-26T11:05:42;0.90;;;0.90;;
19907;SDS011;10116;53.112;7.356;2024-02-26T11:08:10;0.80;;;0.80;;
19907;SDS011;10116;53.112;7.356;2024-02-26T11:10:36;1.53;;;1.10;;
19907;SDS011;10116;53.112;7.356;2024-02-26T11:13:03;0.90;;;0.90;;
19907;SDS011;10116;53.112;7.356;2024-02-26T11:15:31;1.00;;;1.00;;
19907;SDS011;10116;53.112;7.356;2024-02-26T11:17:58;1.00;;;1.00;;
19907;SDS011;10116;53.112;7.356;2024-02-26T11:20:27;0.77;;;0.77;;
19907;SDS011;10116;53.112;7.356;2024-02-26T11:22:54;1.10;;;1.10;;
19907;SDS011;10116;53.112;7.356;2024-02-26T11:25:20;0.70;;;0.70;;
19907;SDS011;10116;53.112;7.356;2024-02-26T11:28:29;1.10;;;1.10;;
19907;SDS011;10116;53.112;7.356;2024-02-26T11:30:38;0.90;;;0.90;;
19907;SDS011;10116;53.112;7.356;2024-02-26T11:33:07;1.00;;;1.00;;
19907;SDS011;10116;53.112;7.356;2024-02-26T11:35:34;0.77;;;0.77;;
19907;SDS011;10116;53.112;7.356;2024-02-26T11:38:03;1.23;;;1.23;;
19907;SDS011;10116;53.112;7.356;2024-02-26T11:40:31;0.90;;;0.90;;
19907;SDS011;10116;53.112;7.356;2024-02-26T11:42:57;1.17;;;0.87;;
19907;SDS011;10116;53.112;7.356;2024-02-26T11:48:04;0.87;;;0.87;;
19907;SDS011;10116;53.112;7.356;2024-02-26T11:50:46;0.90;;;0.90;;
19907;SDS011;10116;53.112;7.356;2024-02-26T11:55:48;1.20;;;1.10;;
19907;SDS011;10116;53.112;7.356;2024-02-26T11:58:34;1.00;;;0.90;;
19907;SDS011;10116;53.112;7.356;2024-02-26T12:00:59;1.10;;;1.00;;
19907;SDS011;10116;53.112;7.356;2024-02-26T12:03:25;0.87;;;0.87;;
19907;SDS011;10116;53.112;7.356;2024-02-26T12:05:51;1.10;;;0.83;;
19907;SDS011;10116;53.112;7.356;2024-02-26T12:08:17;0.83;;;0.83;;
19907;SDS011;10116;53.112;7.356;2024-02-26T12:10:45;0.80;;;0.80;;
19907;SDS011;10116;53.112;7.356;2024-02-26T12:13:11;0.80;;;0.80;;
19907;SDS011;10116;53.112;7.356;2024-02-26T12:18:07;0.87;;;0.87;;
19907;SDS011;10116;53.112;7.356;2024-02-26T12:20:35;0.70;;;0.70;;
19907;SDS011;10116;53.112;7.356;2024-02-26T12:23:02;0.97;;;0.97;;
19907;SDS011;10116;53.112;7.356;2024-02-26T12:25:31;0.80;;;0.80;;
19907;SDS011;10116;53.112;7.356;2024-02-26T12:27:58;0.90;;;0.90;;
19907;SDS011;10116;53.112;7.356;2024-02-26T12:30:24;0.90;;;0.90;;
19907;SDS011;10116;53.112;7.356;2024-02-26T12:32:51;0.97;;;0.87;;
19907;SDS011;10116;53.112;7.356;2024-02-26T12:35:22;0.80;;;0.80;;
19907;SDS011;10116;53.112;7.356;2024-02-26T12:37:48;0.87;;;0.87;;
19907;SDS011;10116;53.112;7.356;2024-02-26T12:40:16;0.90;;;0.90;;
19907;SDS011;10116;53.112;7.356;2024-02-26T12:42:43;0.77;;;0.77;;
19907;SDS011;10116;53.112;7.356;2024-02-26T12:45:12;0.77;;;0.77;;
19907;SDS011;10116;53.112;7.356;2024-02-26T12:47:39;0.87;;;0.87;;
19907;SDS011;10116;53.112;7.356;2024-02-26T12:50:06;0.70;;;0.70;;
19907;SDS011;10116;53.112;7.356;2024-02-26T12:52:33;1.23;;;1.23;;
19907;SDS011;10116;53.112;7.356;2024-02-26T12:55:01;1.10;;;1.00;;
19907;SDS011;10116;53.112;7.356;2024-02-26T12:57:34;0.80;;;0.80;;
19907;SDS011;10116;53.112;7.356;2024-02-26T13:00:02;0.80;;;0.80;;
19907;SDS011;10116;53.112;7.356;2024-02-26T13:02:31;0.90;;;0.90;;
19907;SDS011;10116;53.112;7.356;2024-02-26T13:04:57;1.20;;;1.20;;
19907;SDS011;10116;53.112;7.356;2024-02-26T13:07:26;1.00;;;0.87;;
19907;SDS011;10116;53.112;7.356;2024-02-26T13:09:52;1.10;;;1.10;;
19907;SDS011;10116;53.112;7.356;2024-02-26T13:12:18;0.97;;;0.97;;
19907;SDS011;10116;53.112;7.356;2024-02-26T13:14:43;1.23;;;1.23;;
19907;SDS011;10116;53.112;7.356;2024-02-26T13:17:09;1.20;;;1.20;;
19907;SDS011;10116;53.112;7.356;2024-02-26T13:19:35;1.10;;;1.10;;
19907;SDS011;10116;53.112;7.356;2024-02-26T13:22:04;1.10;;;1.10;;
19907;SDS011;10116;53.112;7.356;2024-02-26T13:24:31;1.20;;;1.20;;
19907;SDS011;10116;53.112;7.356;2024-02-26T13:26:58;1.20;;;1.20;;
19907;SDS011;10116;53.112;7.356;2024-02-26T13:29:24;1.30;;;1.20;;
19907;SDS011;10116;53.112;7.356;2024-02-26T13:31:57;1.10;;;1.10;;
19907;SDS011;10116;53.112;7.356;2024-02-26T13:34:26;1.30;;;1.30;;
19907;SDS011;10116;53.112;7.356;2024-02-26T13:36:53;1.23;;;1.23;;
19907;SDS011;10116;53.112;7.356;2024-02-26T13:39:26;1.10;;;1.10;;
19907;SDS011;10116;53.112;7.356;2024-02-26T13:41:53;1.27;;;1.17;;
19907;SDS011;10116;53.112;7.356;2024-02-26T13:44:19;1.60;;;1.50;;
19907;SDS011;10116;53.112;7.356;2024-02-26T13:46:46;1.23;;;1.17;;
19907;SDS011;10116;53.112;7.356;2024-02-26T13:49:12;1.40;;;1.40;;
19907;SDS011;10116;53.112;7.356;2024-02-26T13:51:41;1.33;;;1.33;;
19907;SDS011;10116;53.112;7.356;2024-02-26T13:54:06;2.20;;;1.00;;
19907;SDS011;10116;53.112;7.356;2024-02-26T13:56:32;2.90;;;1.50;;
19907;SDS011;10116;53.112;7.356;2024-02-26T13:58:58;1.67;;;1.57;;
19907;SDS011;10116;53.112;7.356;2024-02-26T14:01:24;1.40;;;1.40;;
19907;SDS011;10116;53.112;7.356;2024-02-26T14:03:50;1.50;;;1.50;;
19907;SDS011;10116;53.112;7.356;2024-02-26T14:06:16;1.23;;;1.23;;
19907;SDS011;10116;53.112;7.356;2024-02-26T14:08:42;1.27;;;1.17;;
19907;SDS011;10116;53.112;7.356;2024-02-26T14:11:07;1.20;;;1.20;;
19907;SDS011;10116;53.112;7.356;2024-02-26T14:13:33;1.20;;;1.20;;
19907;SDS011;10116;53.112;7.356;2024-02-26T14:15:59;1.03;;;1.03;;
19907;SDS011;10116;53.112;7.356;2024-02-26T14:18:24;1.00;;;1.00;;
19907;SDS011;10116;53.112;7.356;2024-02-26T14:20:50;0.90;;;0.90;;
19907;SDS011;10116;53.112;7.356;2024-02-26T14:23:16;1.10;;;1.10;;
19907;SDS011;10116;53.112;7.356;2024-02-26T14:25:42;1.47;;;1.43;;
19907;SDS011;10116;53.112;7.356;2024-02-26T14:28:07;1.17;;;1.17;;
19907;SDS011;10116;53.112;7.356;2024-02-26T14:30:34;1.33;;;1.23;;
19907;SDS011;10116;53.112;7.356;2024-02-26T14:32:59;1.27;;;1.27;;
19907;SDS011;10116;53.112;7.356;2024-02-26T14:35:25;1.33;;;1.33;;
19907;SDS011;10116;53.112;7.356;2024-02-26T14:37:51;0.93;;;0.93;;
19907;SDS011;10116;53.112;7.356;2024-02-26T14:40:17;1.47;;;1.47;;
19907;SDS011;10116;53.112;7.356;2024-02-26T14:42:44;1.20;;;1.20;;
19907;SDS011;10116;53.112;7.356;2024-02-26T14:45:10;1.27;;;1.27;;
19907;SDS011;10116;53.112;7.356;2024-02-26T14:47:36;1.47;;;1.37;;
19907;SDS011;10116;53.112;7.356;2024-02-26T14:50:02;1.53;;;1.43;;
19907;SDS011;10116;53.112;7.356;2024-02-26T14:52:28;1.30;;;1.30;;